createdAt,value
2017-08-19T00:00:18.260Z,0
2017-08-19T00:01:19.809Z,0
2017-08-19T00:02:21.330Z,0
2017-08-19T00:03:22.814Z,0
2017-08-19T00:04:24.540Z,0
2017-08-19T00:05:25.991Z,0
2017-08-19T00:06:27.498Z,0
2017-08-19T00:07:29.036Z,0
2017-08-19T00:08:30.593Z,0
2017-08-19T00:09:32.194Z,0
2017-08-19T00:10:33.825Z,0
2017-08-19T00:11:35.348Z,0
2017-08-19T00:12:36.891Z,0
2017-08-19T00:13:38.425Z,0
2017-08-19T00:14:39.906Z,0
2017-08-19T00:15:41.418Z,0
2017-08-19T00:16:43.023Z,0
2017-08-19T00:17:44.537Z,0
2017-08-19T00:18:46.056Z,0
2017-08-19T00:19:47.607Z,0
2017-08-19T00:20:49.252Z,0
2017-08-19T00:21:50.765Z,0
2017-08-19T00:22:52.353Z,0
2017-08-19T00:23:54.149Z,0
2017-08-19T00:24:55.665Z,0
2017-08-19T00:25:57.223Z,0
2017-08-19T00:26:59.308Z,0
2017-08-19T00:28:01.404Z,0
2017-08-19T00:29:03.018Z,0
2017-08-19T00:30:04.533Z,0
2017-08-19T00:31:06.054Z,0
2017-08-19T00:32:07.581Z,0
2017-08-19T00:33:09.160Z,0
2017-08-19T00:34:10.717Z,0
2017-08-19T00:35:12.265Z,0
2017-08-19T00:36:13.802Z,0
2017-08-19T00:37:15.314Z,0
2017-08-19T00:38:16.843Z,0
2017-08-19T00:39:18.300Z,0
2017-08-19T00:40:19.795Z,0
2017-08-19T00:41:21.276Z,0
2017-08-19T00:42:22.802Z,0
2017-08-19T00:43:24.305Z,0
2017-08-19T00:44:25.828Z,0
2017-08-19T00:45:27.336Z,0
2017-08-19T00:46:28.927Z,0
2017-08-19T00:47:30.489Z,0
2017-08-19T00:48:32.012Z,0
2017-08-19T00:49:33.536Z,0
2017-08-19T00:50:35.038Z,0
2017-08-19T00:51:36.560Z,0
2017-08-19T00:52:38.013Z,0
2017-08-19T00:53:39.541Z,0
2017-08-19T00:54:41.054Z,0
2017-08-19T00:55:42.530Z,0
2017-08-19T00:56:43.962Z,0
2017-08-19T00:57:45.408Z,0
2017-08-19T00:58:46.971Z,0
2017-08-19T00:59:48.486Z,0
2017-08-19T01:00:50.017Z,0
2017-08-19T01:01:51.530Z,0
2017-08-19T01:02:53.044Z,0
2017-08-19T01:03:54.546Z,0
2017-08-19T01:04:56.100Z,0
2017-08-19T01:05:57.616Z,0
2017-08-19T01:06:59.103Z,0
2017-08-19T01:08:00.576Z,0
2017-08-19T01:09:02.095Z,0
2017-08-19T01:10:03.570Z,0
2017-08-19T01:11:05.338Z,0
2017-08-19T01:12:07.061Z,0
2017-08-19T01:13:08.694Z,0
2017-08-19T01:14:10.231Z,0
2017-08-19T01:15:11.733Z,0
2017-08-19T01:16:13.333Z,0
2017-08-19T01:17:14.815Z,0
2017-08-19T01:18:16.526Z,0
2017-08-19T01:19:18.415Z,0
2017-08-19T01:20:20.129Z,0
2017-08-19T01:21:21.920Z,0
2017-08-19T01:22:23.422Z,0
2017-08-19T01:23:24.912Z,0
2017-08-19T01:24:26.468Z,0
2017-08-19T01:25:28.028Z,0
2017-08-19T01:26:29.524Z,0
2017-08-19T01:27:31.273Z,0
2017-08-19T01:28:32.881Z,0
2017-08-19T01:29:34.446Z,0
2017-08-19T01:30:36.084Z,0
2017-08-19T01:31:37.584Z,0
2017-08-19T01:32:39.092Z,0
2017-08-19T01:33:40.586Z,0
2017-08-19T01:34:42.629Z,0
2017-08-19T01:35:44.550Z,0
2017-08-19T01:36:46.070Z,0
2017-08-19T01:37:47.631Z,0
2017-08-19T01:38:49.161Z,0
2017-08-19T01:39:50.754Z,0
2017-08-19T01:40:52.256Z,0
2017-08-19T01:41:53.741Z,0
2017-08-19T01:42:55.308Z,0
2017-08-19T01:43:56.831Z,0
2017-08-19T01:44:58.326Z,0
2017-08-19T01:45:59.860Z,0
2017-08-19T01:47:02.427Z,0
2017-08-19T01:48:03.810Z,0
2017-08-19T01:49:05.274Z,0
2017-08-19T01:50:06.815Z,0
2017-08-19T01:51:08.366Z,0
2017-08-19T01:52:09.897Z,0
2017-08-19T01:53:11.416Z,0
2017-08-19T01:54:12.868Z,0
2017-08-19T01:55:14.377Z,0
2017-08-19T01:56:15.862Z,0
2017-08-19T01:57:17.341Z,0
2017-08-19T01:58:18.864Z,0
2017-08-19T01:59:20.415Z,0
2017-08-19T02:00:22.037Z,0
2017-08-19T02:01:23.583Z,0
2017-08-19T02:02:25.127Z,0
2017-08-19T02:03:26.695Z,0
2017-08-19T02:04:28.265Z,0
2017-08-19T02:05:29.827Z,0
2017-08-19T02:06:31.324Z,0
2017-08-19T02:07:32.836Z,0
2017-08-19T02:08:34.331Z,0
2017-08-19T02:09:35.862Z,0
2017-08-19T02:10:37.325Z,0
2017-08-19T02:11:38.838Z,0
2017-08-19T02:12:40.347Z,0
2017-08-19T02:13:41.871Z,0
2017-08-19T02:14:43.346Z,0
2017-08-19T02:15:44.933Z,0
2017-08-19T02:16:46.460Z,0
2017-08-19T02:17:48.003Z,0
2017-08-19T02:18:49.545Z,0
2017-08-19T02:19:51.049Z,0
2017-08-19T02:20:52.635Z,0
2017-08-19T02:21:54.140Z,0
2017-08-19T02:22:55.666Z,0
2017-08-19T02:23:57.192Z,0
2017-08-19T02:24:58.699Z,0
2017-08-19T02:26:00.219Z,0
2017-08-19T02:27:01.754Z,0
2017-08-19T02:28:03.274Z,0
2017-08-19T02:29:04.815Z,0
2017-08-19T02:30:06.307Z,0
2017-08-19T02:31:07.851Z,0
2017-08-19T02:32:09.344Z,0
2017-08-19T02:33:10.865Z,0
2017-08-19T02:34:12.424Z,0
2017-08-19T02:35:13.952Z,0
2017-08-19T02:36:15.455Z,0
2017-08-19T02:37:17.041Z,0
2017-08-19T02:38:18.534Z,0
2017-08-19T02:39:20.771Z,0
2017-08-19T02:40:22.145Z,0
2017-08-19T02:41:23.673Z,0
2017-08-19T02:42:25.227Z,0
2017-08-19T02:43:26.771Z,0
2017-08-19T02:44:28.272Z,0
2017-08-19T02:45:29.789Z,0
2017-08-19T02:46:31.374Z,0
2017-08-19T02:47:32.876Z,0
2017-08-19T02:48:34.384Z,0
2017-08-19T02:49:35.902Z,0
2017-08-19T02:50:37.467Z,0
2017-08-19T02:51:38.968Z,0
2017-08-19T02:52:40.487Z,0
2017-08-19T02:53:42.000Z,0
2017-08-19T02:54:43.820Z,0
2017-08-19T02:55:45.373Z,0
2017-08-19T02:56:46.992Z,0
2017-08-19T02:57:48.505Z,0
2017-08-19T02:58:50.032Z,0
2017-08-19T02:59:51.590Z,0
2017-08-19T03:00:53.053Z,0
2017-08-19T03:01:54.593Z,0
2017-08-19T03:02:56.977Z,0
2017-08-19T03:03:58.533Z,0
2017-08-19T03:05:00.064Z,0
2017-08-19T03:06:01.605Z,0
2017-08-19T03:07:03.149Z,0
2017-08-19T03:08:04.807Z,0
2017-08-19T03:09:06.331Z,0
2017-08-19T03:10:07.849Z,0
2017-08-19T03:11:09.381Z,0
2017-08-19T03:12:10.931Z,0
2017-08-19T03:13:12.416Z,0
2017-08-19T03:14:13.935Z,0
2017-08-19T03:15:15.512Z,0
2017-08-19T03:16:17.098Z,0
2017-08-19T03:17:18.613Z,0
2017-08-19T03:18:20.123Z,0
2017-08-19T03:19:21.627Z,0
2017-08-19T03:20:23.142Z,0
2017-08-19T03:21:24.634Z,0
2017-08-19T03:22:26.244Z,0
2017-08-19T03:23:27.750Z,0
2017-08-19T03:24:29.348Z,0
2017-08-19T03:25:30.836Z,0
2017-08-19T03:26:32.327Z,0
2017-08-19T03:27:33.949Z,0
2017-08-19T03:28:35.494Z,0
2017-08-19T03:29:37.090Z,0
2017-08-19T03:30:38.634Z,0
2017-08-19T03:31:40.095Z,0
2017-08-19T03:32:41.564Z,0
2017-08-19T03:33:43.090Z,0
2017-08-19T03:34:44.708Z,0
2017-08-19T03:35:46.250Z,0
2017-08-19T03:36:47.855Z,0
2017-08-19T03:37:49.421Z,0
2017-08-19T03:38:50.904Z,0
2017-08-19T03:39:52.442Z,0
2017-08-19T03:40:53.923Z,0
2017-08-19T03:41:55.416Z,4
2017-08-19T03:42:56.992Z,4
2017-08-19T03:43:58.550Z,4
2017-08-19T03:45:00.031Z,4
2017-08-19T03:46:01.635Z,4
2017-08-19T03:47:03.172Z,8
2017-08-19T03:48:05.691Z,4
2017-08-19T03:49:07.175Z,8
2017-08-19T03:50:08.690Z,8
2017-08-19T03:51:10.195Z,12
2017-08-19T03:52:11.686Z,12
2017-08-19T03:53:13.232Z,12
2017-08-19T03:54:14.793Z,16
2017-08-19T03:55:16.268Z,16
2017-08-19T03:56:17.806Z,20
2017-08-19T03:57:19.323Z,24
2017-08-19T03:58:20.868Z,28
2017-08-19T03:59:22.355Z,32
2017-08-19T04:00:23.902Z,32
2017-08-19T04:01:25.348Z,40
2017-08-19T04:02:26.836Z,44
2017-08-19T04:03:28.362Z,52
2017-08-19T04:04:29.893Z,56
2017-08-19T04:05:31.396Z,60
2017-08-19T04:06:32.952Z,68
2017-08-19T04:07:34.487Z,72
2017-08-19T04:08:36.035Z,80
2017-08-19T04:09:37.597Z,84
2017-08-19T04:10:39.100Z,92
2017-08-19T04:11:40.678Z,96
2017-08-19T04:12:42.265Z,104
2017-08-19T04:13:43.782Z,112
2017-08-19T04:14:45.349Z,120
2017-08-19T04:15:46.820Z,128
2017-08-19T04:16:48.322Z,136
2017-08-19T04:17:49.883Z,148
2017-08-19T04:18:51.364Z,160
2017-08-19T04:19:52.955Z,168
2017-08-19T04:20:54.407Z,180
2017-08-19T04:21:55.944Z,192
2017-08-19T04:22:57.430Z,204
2017-08-19T04:23:59.022Z,216
2017-08-19T04:25:00.551Z,228
2017-08-19T04:26:02.053Z,240
2017-08-19T04:27:03.562Z,256
2017-08-19T04:28:05.087Z,268
2017-08-19T04:29:06.582Z,284
2017-08-19T04:30:08.104Z,300
2017-08-19T04:31:09.661Z,316
2017-08-19T04:32:11.183Z,336
2017-08-19T04:33:12.787Z,352
2017-08-19T04:34:14.289Z,372
2017-08-19T04:35:15.798Z,392
2017-08-19T04:36:17.335Z,416
2017-08-19T04:37:18.856Z,440
2017-08-19T04:38:20.429Z,464
2017-08-19T04:39:22.036Z,484
2017-08-19T04:40:23.601Z,504
2017-08-19T04:41:25.165Z,520
2017-08-19T04:42:26.708Z,540
2017-08-19T04:43:28.245Z,560
2017-08-19T04:44:29.737Z,592
2017-08-19T04:45:31.262Z,608
2017-08-19T04:46:32.839Z,624
2017-08-19T04:47:34.314Z,644
2017-08-19T04:48:35.843Z,660
2017-08-19T04:49:37.386Z,672
2017-08-19T04:50:38.897Z,692
2017-08-19T04:51:40.511Z,708
2017-08-19T04:52:42.090Z,720
2017-08-19T04:53:43.605Z,728
2017-08-19T04:54:45.125Z,736
2017-08-19T04:55:46.631Z,760
2017-08-19T04:56:48.134Z,780
2017-08-19T04:57:49.711Z,792
2017-08-19T04:58:51.348Z,812
2017-08-19T04:59:52.951Z,816
2017-08-19T05:00:54.493Z,836
2017-08-19T05:01:56.056Z,868
2017-08-19T05:02:57.576Z,896
2017-08-19T05:03:59.108Z,920
2017-08-19T05:05:00.632Z,944
2017-08-19T05:06:02.195Z,964
2017-08-19T05:07:03.681Z,988
2017-08-19T05:08:05.213Z,1012
2017-08-19T05:09:06.832Z,1032
2017-08-19T05:10:08.373Z,1060
2017-08-19T05:11:09.904Z,1088
2017-08-19T05:12:11.432Z,1112
2017-08-19T05:13:12.953Z,1136
2017-08-19T05:14:14.462Z,1160
2017-08-19T05:15:15.957Z,1184
2017-08-19T05:16:17.499Z,1212
2017-08-19T05:17:19.023Z,1228
2017-08-19T05:18:20.556Z,1260
2017-08-19T05:19:22.012Z,1284
2017-08-19T05:20:23.518Z,1312
2017-08-19T05:21:24.994Z,1340
2017-08-19T05:22:26.522Z,1372
2017-08-19T05:23:28.028Z,1388
2017-08-19T05:24:29.577Z,1400
2017-08-19T05:25:31.082Z,1412
2017-08-19T05:26:32.589Z,1436
2017-08-19T05:27:34.109Z,1456
2017-08-19T05:28:35.588Z,1480
2017-08-19T05:29:37.125Z,1500
2017-08-19T05:30:38.702Z,1520
2017-08-19T05:31:40.171Z,1540
2017-08-19T05:32:41.764Z,1560
2017-08-19T05:33:43.227Z,1572
2017-08-19T05:34:44.788Z,1592
2017-08-19T05:35:46.432Z,1620
2017-08-19T05:36:47.923Z,1648
2017-08-19T05:37:49.424Z,1692
2017-08-19T05:38:50.977Z,1736
2017-08-19T05:39:52.593Z,1776
2017-08-19T05:40:54.110Z,1812
2017-08-19T05:41:55.629Z,1820
2017-08-19T05:42:57.202Z,1824
2017-08-19T05:43:58.753Z,1836
2017-08-19T05:45:00.302Z,1848
2017-08-19T05:46:01.848Z,1864
2017-08-19T05:47:03.334Z,1880
2017-08-19T05:48:04.875Z,1900
2017-08-19T05:49:06.355Z,1928
2017-08-19T05:50:07.904Z,1964
2017-08-19T05:51:09.444Z,2000
2017-08-19T05:52:10.965Z,2036
2017-08-19T05:53:12.505Z,2056
2017-08-19T05:54:14.049Z,2088
2017-08-19T05:55:15.525Z,2096
2017-08-19T05:56:17.074Z,2120
2017-08-19T05:57:18.625Z,2088
2017-08-19T05:58:20.145Z,2036
2017-08-19T05:59:21.633Z,2024
2017-08-19T06:00:23.148Z,2036
2017-08-19T06:01:24.716Z,2060
2017-08-19T06:02:26.254Z,2092
2017-08-19T06:03:27.843Z,2148
2017-08-19T06:04:29.363Z,2224
2017-08-19T06:05:30.893Z,2284
2017-08-19T06:06:32.429Z,2340
2017-08-19T06:07:33.961Z,2376
2017-08-19T06:08:35.510Z,2464
2017-08-19T06:09:37.068Z,2468
2017-08-19T06:10:38.551Z,2480
2017-08-19T06:11:40.121Z,2528
2017-08-19T06:12:41.677Z,2524
2017-08-19T06:13:43.232Z,2584
2017-08-19T06:14:44.726Z,2740
2017-08-19T06:15:46.200Z,2696
2017-08-19T06:16:47.716Z,2712
2017-08-19T06:17:49.238Z,2724
2017-08-19T06:18:50.742Z,2728
2017-08-19T06:19:52.273Z,2620
2017-08-19T06:20:53.769Z,2580
2017-08-19T06:21:55.304Z,2656
2017-08-19T06:22:56.817Z,2768
2017-08-19T06:23:58.343Z,2788
2017-08-19T06:24:59.864Z,2904
2017-08-19T06:26:01.391Z,3144
2017-08-19T06:27:02.941Z,3328
2017-08-19T06:28:04.475Z,3444
2017-08-19T06:29:05.962Z,3684
2017-08-19T06:30:07.476Z,3812
2017-08-19T06:31:08.969Z,3904
2017-08-19T06:32:10.496Z,3976
2017-08-19T06:33:12.023Z,3820
2017-08-19T06:34:13.515Z,3780
2017-08-19T06:35:15.028Z,3760
2017-08-19T06:36:16.513Z,3800
2017-08-19T06:37:17.998Z,4012
2017-08-19T06:38:19.520Z,3992
2017-08-19T06:39:21.019Z,4012
2017-08-19T06:40:22.544Z,4184
2017-08-19T06:41:24.052Z,4088
2017-08-19T06:42:25.549Z,4244
2017-08-19T06:43:27.112Z,3896
2017-08-19T06:44:28.623Z,3664
2017-08-19T06:45:30.158Z,3468
2017-08-19T06:46:31.697Z,3348
2017-08-19T06:47:33.186Z,3344
2017-08-19T06:48:34.728Z,3312
2017-08-19T06:49:36.275Z,3304
2017-08-19T06:50:37.789Z,3376
2017-08-19T06:51:39.381Z,3464
2017-08-19T06:52:40.870Z,3720
2017-08-19T06:53:42.393Z,4056
2017-08-19T06:54:43.893Z,4152
2017-08-19T06:55:45.409Z,4124
2017-08-19T06:56:46.917Z,4124
2017-08-19T06:57:48.455Z,4016
2017-08-19T06:58:50.003Z,3992
2017-08-19T06:59:51.543Z,3848
2017-08-19T07:00:53.139Z,3408
2017-08-19T07:01:54.663Z,3156
2017-08-19T07:02:56.205Z,2904
2017-08-19T07:03:57.732Z,2768
2017-08-19T07:04:59.317Z,2676
2017-08-19T07:06:00.864Z,2704
2017-08-19T07:07:02.447Z,2860
2017-08-19T07:08:03.951Z,3096
2017-08-19T07:09:05.460Z,3336
2017-08-19T07:10:07.027Z,3532
2017-08-19T07:11:08.585Z,3628
2017-08-19T07:12:10.016Z,3700
2017-08-19T07:13:11.628Z,3844
2017-08-19T07:14:13.178Z,3700
2017-08-19T07:15:14.687Z,3420
2017-08-19T07:16:16.225Z,3008
2017-08-19T07:17:17.838Z,2660
2017-08-19T07:18:19.325Z,2452
2017-08-19T07:19:20.842Z,2408
2017-08-19T07:20:22.357Z,2364
2017-08-19T07:21:23.920Z,2336
2017-08-19T07:22:25.490Z,2332
2017-08-19T07:23:27.061Z,2296
2017-08-19T07:24:28.570Z,2332
2017-08-19T07:25:30.084Z,2404
2017-08-19T07:26:31.601Z,2488
2017-08-19T07:27:33.176Z,2512
2017-08-19T07:28:34.759Z,2504
2017-08-19T07:29:36.327Z,2408
2017-08-19T07:30:37.852Z,2452
2017-08-19T07:31:39.397Z,2792
2017-08-19T07:32:40.916Z,3252
2017-08-19T07:33:42.410Z,3516
2017-08-19T07:34:43.940Z,3724
2017-08-19T07:35:45.484Z,4132
2017-08-19T07:36:47.020Z,4404
2017-08-19T07:37:48.576Z,4324
2017-08-19T07:38:50.084Z,4216
2017-08-19T07:39:51.678Z,4172
2017-08-19T07:40:53.214Z,4248
2017-08-19T07:41:54.743Z,4500
2017-08-19T07:42:56.320Z,4692
2017-08-19T07:43:57.823Z,4708
2017-08-19T07:44:59.364Z,4720
2017-08-19T07:46:00.936Z,5028
2017-08-19T07:47:02.469Z,5392
2017-08-19T07:48:04.010Z,5744
2017-08-19T07:49:05.504Z,6212
2017-08-19T07:50:07.055Z,6944
2017-08-19T07:51:08.584Z,7760
2017-08-19T07:52:10.159Z,8104
2017-08-19T07:53:11.696Z,8240
2017-08-19T07:54:13.226Z,8288
2017-08-19T07:55:14.777Z,9488
2017-08-19T07:56:16.317Z,9500
2017-08-19T07:57:17.860Z,8448
2017-08-19T07:58:19.395Z,7664
2017-08-19T07:59:20.910Z,6704
2017-08-19T08:00:22.512Z,5604
2017-08-19T08:01:24.152Z,4432
2017-08-19T08:02:25.766Z,3708
2017-08-19T08:03:27.343Z,3208
2017-08-19T08:04:28.884Z,2904
2017-08-19T08:05:30.468Z,2736
2017-08-19T08:06:32.002Z,2712
2017-08-19T08:07:33.625Z,2760
2017-08-19T08:08:35.173Z,2820
2017-08-19T08:09:36.789Z,2952
2017-08-19T08:10:38.282Z,3124
2017-08-19T08:11:39.842Z,3220
2017-08-19T08:12:41.449Z,3332
2017-08-19T08:13:42.957Z,3312
2017-08-19T08:14:44.627Z,3192
2017-08-19T08:15:46.158Z,3248
2017-08-19T08:16:47.775Z,3468
2017-08-19T08:17:49.358Z,3852
2017-08-19T08:18:50.878Z,4512
2017-08-19T08:19:52.449Z,4968
2017-08-19T08:20:54.018Z,5268
2017-08-19T08:21:55.524Z,5496
2017-08-19T08:22:57.062Z,5500
2017-08-19T08:23:58.666Z,5508
2017-08-19T08:25:00.245Z,5848
2017-08-19T08:26:01.775Z,6616
2017-08-19T08:27:03.370Z,7396
2017-08-19T08:28:04.998Z,7100
2017-08-19T08:29:06.602Z,6692
2017-08-19T08:30:08.161Z,6268
2017-08-19T08:31:09.697Z,5976
2017-08-19T08:32:11.228Z,4808
2017-08-19T08:33:12.766Z,4296
2017-08-19T08:34:14.254Z,6608
2017-08-19T08:35:15.837Z,5732
2017-08-19T08:36:17.326Z,6172
2017-08-19T08:37:18.910Z,8736
2017-08-19T08:38:20.446Z,9744
2017-08-19T08:39:22.057Z,10152
2017-08-19T08:40:23.593Z,9384
2017-08-19T08:41:25.081Z,10576
2017-08-19T08:42:26.676Z,10720
2017-08-19T08:43:28.224Z,10916
2017-08-19T08:44:29.892Z,6096
2017-08-19T08:45:31.421Z,8272
2017-08-19T08:46:32.985Z,10492
2017-08-19T08:47:34.531Z,9680
2017-08-19T08:48:36.085Z,12232
2017-08-19T08:49:37.699Z,11956
2017-08-19T08:50:39.171Z,11352
2017-08-19T08:51:40.725Z,11496
2017-08-19T08:52:42.271Z,11128
2017-08-19T08:53:43.775Z,11236
2017-08-19T08:54:45.298Z,11312
2017-08-19T08:55:46.807Z,11180
2017-08-19T08:56:48.360Z,11720
2017-08-19T08:57:49.873Z,12084
2017-08-19T08:58:51.441Z,11488
2017-08-19T08:59:52.956Z,13448
2017-08-19T09:00:54.489Z,13104
2017-08-19T09:01:56.067Z,12548
2017-08-19T09:02:57.621Z,11664
2017-08-19T09:03:59.141Z,11600
2017-08-19T09:05:00.719Z,11668
2017-08-19T09:06:02.273Z,6220
2017-08-19T09:07:03.796Z,11120
2017-08-19T09:08:05.322Z,4320
2017-08-19T09:09:06.895Z,4924
2017-08-19T09:10:08.458Z,12360
2017-08-19T09:11:10.003Z,4996
2017-08-19T09:12:11.538Z,4304
2017-08-19T09:13:13.082Z,3956
2017-08-19T09:14:14.697Z,11028
2017-08-19T09:15:16.253Z,4876
2017-08-19T09:16:17.850Z,8924
2017-08-19T09:17:19.405Z,10848
2017-08-19T09:18:20.990Z,9372
2017-08-19T09:19:22.582Z,10852
2017-08-19T09:20:24.157Z,10768
2017-08-19T09:21:26.534Z,10760
2017-08-19T09:22:28.045Z,11016
2017-08-19T09:23:29.621Z,10960
2017-08-19T09:24:31.278Z,11016
2017-08-19T09:25:32.798Z,11128
2017-08-19T09:26:34.406Z,10568
2017-08-19T09:27:35.922Z,11332
2017-08-19T09:28:37.508Z,11440
2017-08-19T09:29:39.078Z,11580
2017-08-19T09:30:40.728Z,11792
2017-08-19T09:31:42.339Z,12264
2017-08-19T09:32:43.971Z,12504
2017-08-19T09:33:45.545Z,11940
2017-08-19T09:34:47.440Z,11924
2017-08-19T09:35:49.002Z,12184
2017-08-19T09:36:50.537Z,12268
2017-08-19T09:37:52.100Z,12280
2017-08-19T09:38:53.639Z,12272
2017-08-19T09:39:55.167Z,12364
2017-08-19T09:40:56.784Z,12444
2017-08-19T09:41:58.351Z,12608
2017-08-19T09:42:59.917Z,13028
2017-08-19T09:44:01.558Z,13640
2017-08-19T09:45:03.146Z,13528
2017-08-19T09:46:04.754Z,7476
2017-08-19T09:47:06.379Z,13356
2017-08-19T09:48:07.991Z,13952
2017-08-19T09:49:09.588Z,14240
2017-08-19T09:50:11.166Z,13356
2017-08-19T09:51:12.825Z,14240
2017-08-19T09:52:14.417Z,13692
2017-08-19T09:53:16.064Z,13192
2017-08-19T09:54:17.646Z,13896
2017-08-19T09:55:19.177Z,4096
2017-08-19T09:56:20.737Z,4060
2017-08-19T09:57:22.473Z,13568
2017-08-19T09:58:25.783Z,13408
2017-08-19T09:59:27.432Z,13924
2017-08-19T10:00:29.087Z,14272
2017-08-19T10:01:30.701Z,14528
2017-08-19T10:02:32.246Z,4388
2017-08-19T10:03:33.831Z,14368
2017-08-19T10:04:35.417Z,14400
2017-08-19T10:05:36.933Z,14240
2017-08-19T10:06:38.487Z,14304
2017-08-19T10:07:40.031Z,14336
2017-08-19T10:08:41.560Z,14464
2017-08-19T10:09:43.246Z,14528
2017-08-19T10:10:44.805Z,14464
2017-08-19T10:11:46.370Z,13940
2017-08-19T10:12:47.966Z,14368
2017-08-19T10:13:49.578Z,10020
2017-08-19T10:14:51.174Z,13768
2017-08-19T10:15:52.778Z,13268
2017-08-19T10:16:54.406Z,13208
2017-08-19T10:17:56.144Z,13092
2017-08-19T10:18:57.715Z,13020
2017-08-19T10:19:59.362Z,12968
2017-08-19T10:21:00.942Z,12872
2017-08-19T10:22:02.529Z,12756
2017-08-19T10:23:04.256Z,12624
2017-08-19T10:24:05.842Z,12552
2017-08-19T10:25:07.431Z,12428
2017-08-19T10:26:09.021Z,12308
2017-08-19T10:27:10.599Z,12260
2017-08-19T10:28:12.167Z,12272
2017-08-19T10:29:13.859Z,12288
2017-08-19T10:30:15.434Z,12188
2017-08-19T10:31:17.104Z,12100
2017-08-19T10:32:18.843Z,12044
2017-08-19T10:33:20.493Z,12012
2017-08-19T10:34:22.098Z,12004
2017-08-19T10:35:23.678Z,12036
2017-08-19T10:36:25.242Z,12076
2017-08-19T10:37:26.777Z,12120
2017-08-19T10:38:28.329Z,12172
2017-08-19T10:39:29.987Z,12248
2017-08-19T10:40:31.531Z,12344
2017-08-19T10:41:33.074Z,12420
2017-08-19T10:42:34.659Z,12536
2017-08-19T10:43:36.186Z,12640
2017-08-19T10:44:37.820Z,12752
2017-08-19T10:45:39.372Z,12852
2017-08-19T10:46:40.937Z,12916
2017-08-19T10:47:42.499Z,12984
2017-08-19T10:48:44.061Z,13048
2017-08-19T10:49:45.666Z,13088
2017-08-19T10:50:47.229Z,13116
2017-08-19T10:51:48.796Z,13096
2017-08-19T10:52:50.350Z,13212
2017-08-19T10:53:51.883Z,13420
2017-08-19T10:54:53.450Z,13688
2017-08-19T10:55:54.974Z,14028
2017-08-19T10:56:56.587Z,14480
2017-08-19T10:57:58.170Z,14956
2017-08-19T10:58:59.701Z,15584
2017-08-19T11:00:01.258Z,16000
2017-08-19T11:01:02.816Z,16512
2017-08-19T11:02:04.386Z,17184
2017-08-19T11:03:05.926Z,17984
2017-08-19T11:04:07.575Z,18528
2017-08-19T11:05:09.165Z,19008
2017-08-19T11:06:10.827Z,19488
2017-08-19T11:07:12.446Z,20032
2017-08-19T11:08:13.967Z,22208
2017-08-19T11:09:15.607Z,38560
2017-08-19T11:10:17.240Z,48224
2017-08-19T11:11:18.933Z,48256
2017-08-19T11:12:20.329Z,48736
2017-08-19T11:13:21.944Z,49632
2017-08-19T11:14:23.533Z,49440
2017-08-19T11:15:25.105Z,50016
2017-08-19T11:16:26.655Z,51328
2017-08-19T11:17:28.344Z,50176
2017-08-19T11:18:29.928Z,51456
2017-08-19T11:19:31.478Z,51040
2017-08-19T11:20:33.062Z,49536
2017-08-19T11:21:34.754Z,53184
2017-08-19T11:22:36.349Z,52992
2017-08-19T11:23:37.953Z,51936
2017-08-19T11:24:39.549Z,53216
2017-08-19T11:25:41.203Z,53216
2017-08-19T11:26:42.946Z,51712
2017-08-19T11:27:44.695Z,52416
2017-08-19T11:28:46.417Z,55808
2017-08-19T11:29:48.050Z,55936
2017-08-19T11:30:49.657Z,54944
2017-08-19T11:31:51.303Z,54592
2017-08-19T11:32:52.976Z,56320
2017-08-19T11:33:54.569Z,57312
2017-08-19T11:34:56.104Z,57056
2017-08-19T11:35:57.684Z,57248
2017-08-19T11:36:59.454Z,58176
2017-08-19T11:38:01.036Z,57984
2017-08-19T11:39:02.842Z,56000
2017-08-19T11:40:04.364Z,50400
2017-08-19T11:41:05.915Z,53536
2017-08-19T11:42:07.534Z,60096
2017-08-19T11:43:09.180Z,58976
2017-08-19T11:44:10.776Z,58336
2017-08-19T11:45:12.359Z,61344
2017-08-19T11:46:13.989Z,64256
2017-08-19T11:47:15.536Z,62560
2017-08-19T11:48:17.128Z,60768
2017-08-19T11:49:18.712Z,61600
2017-08-19T11:50:20.233Z,60896
2017-08-19T11:51:21.824Z,62528
2017-08-19T11:52:23.375Z,63104
2017-08-19T11:53:25.010Z,60608
2017-08-19T11:54:26.604Z,60384
2017-08-19T11:55:28.187Z,59872
2017-08-19T11:56:29.761Z,61248
2017-08-19T11:57:31.332Z,66720
2017-08-19T11:58:32.965Z,65408
2017-08-19T11:59:34.535Z,67008
2017-08-19T12:00:36.088Z,8704
2017-08-19T12:01:37.726Z,20096
2017-08-19T12:02:39.265Z,8768
2017-08-19T12:03:40.852Z,71168
2017-08-19T12:04:42.357Z,13336
2017-08-19T12:05:43.939Z,73600
2017-08-19T12:06:45.610Z,69728
2017-08-19T12:07:47.298Z,68000
2017-08-19T12:08:48.890Z,68576
2017-08-19T12:09:50.474Z,71584
2017-08-19T12:10:52.075Z,65984
2017-08-19T12:11:53.686Z,62848
2017-08-19T12:12:55.245Z,61248
2017-08-19T12:13:56.834Z,64768
2017-08-19T12:14:58.444Z,68352
2017-08-19T12:16:00.077Z,65120
2017-08-19T12:17:02.239Z,8272
2017-08-19T12:18:03.905Z,11336
2017-08-19T12:19:05.512Z,70240
2017-08-19T12:20:07.131Z,68384
2017-08-19T12:21:08.717Z,68032
2017-08-19T12:22:10.360Z,8864
2017-08-19T12:23:11.986Z,51008
2017-08-19T12:24:13.615Z,45312
2017-08-19T12:25:15.276Z,63904
2017-08-19T12:26:16.950Z,63072
2017-08-19T12:27:18.672Z,67296
2017-08-19T12:28:20.275Z,69760
2017-08-19T12:29:21.961Z,71104
2017-08-19T12:30:23.507Z,70592
2017-08-19T12:31:25.076Z,73632
2017-08-19T12:32:26.610Z,8464
2017-08-19T12:33:28.224Z,52736
2017-08-19T12:34:29.812Z,8576
2017-08-19T12:35:31.502Z,7164
2017-08-19T12:36:33.106Z,38912
2017-08-19T12:37:34.683Z,72800
2017-08-19T12:38:36.292Z,71520
2017-08-19T12:39:37.911Z,71040
2017-08-19T12:40:39.494Z,72768
2017-08-19T12:41:41.108Z,71328
2017-08-19T12:42:42.799Z,72192
2017-08-19T12:43:44.429Z,75136
2017-08-19T12:44:46.159Z,74688
2017-08-19T12:45:47.852Z,73824
2017-08-19T12:46:49.459Z,73984
2017-08-19T12:47:50.989Z,72000
2017-08-19T12:48:52.618Z,74688
2017-08-19T12:49:54.245Z,76288
2017-08-19T12:50:55.810Z,73792
2017-08-19T12:51:57.399Z,70208
2017-08-19T12:52:59.068Z,48032
2017-08-19T12:54:00.717Z,28160
2017-08-19T12:55:02.285Z,26368
2017-08-19T12:56:03.953Z,25344
2017-08-19T12:57:05.484Z,25536
2017-08-19T12:58:07.102Z,25888
2017-08-19T12:59:08.665Z,26816
2017-08-19T13:00:10.169Z,30240
2017-08-19T13:01:11.855Z,51488
2017-08-19T13:02:13.380Z,74848
2017-08-19T13:03:14.954Z,76512
2017-08-19T13:04:16.571Z,77376
2017-08-19T13:05:18.183Z,77248
2017-08-19T13:06:19.779Z,76512
2017-08-19T13:07:21.398Z,78560
2017-08-19T13:08:23.030Z,80480
2017-08-19T13:09:24.693Z,12780
2017-08-19T13:10:26.357Z,16768
2017-08-19T13:11:27.938Z,19936
2017-08-19T13:12:29.569Z,74816
2017-08-19T13:13:31.152Z,82176
2017-08-19T13:14:32.701Z,76832
2017-08-19T13:15:34.398Z,83712
2017-08-19T13:16:35.922Z,45536
2017-08-19T13:17:37.499Z,11420
2017-08-19T13:18:39.121Z,16832
2017-08-19T13:19:40.725Z,82400
2017-08-19T13:20:42.333Z,32416
2017-08-19T13:21:43.915Z,86240
2017-08-19T13:22:45.587Z,28704
2017-08-19T13:23:47.257Z,80256
2017-08-19T13:24:48.936Z,84832
2017-08-19T13:25:50.582Z,89056
2017-08-19T13:26:52.170Z,83584
2017-08-19T13:27:53.769Z,13516
2017-08-19T13:28:55.329Z,12724
2017-08-19T13:29:56.902Z,15780
2017-08-19T13:30:58.549Z,32256
2017-08-19T13:32:00.186Z,13216
2017-08-19T13:33:01.696Z,12452
2017-08-19T13:34:03.279Z,13236
2017-08-19T13:35:04.829Z,24000
2017-08-19T13:36:06.387Z,14864
2017-08-19T13:37:07.976Z,17632
2017-08-19T13:38:09.620Z,11260
2017-08-19T13:39:11.210Z,9668
2017-08-19T13:40:12.798Z,8684
2017-08-19T13:41:14.385Z,9588
2017-08-19T13:42:15.923Z,10028
2017-08-19T13:43:17.574Z,8368
2017-08-19T13:44:19.120Z,9100
2017-08-19T13:45:20.814Z,8536
2017-08-19T13:46:22.390Z,8576
2017-08-19T13:47:23.937Z,9844
2017-08-19T13:48:25.505Z,88544
2017-08-19T13:49:27.011Z,86656
2017-08-19T13:50:28.602Z,10196
2017-08-19T13:51:30.293Z,8300
2017-08-19T13:52:32.037Z,7728
2017-08-19T13:53:33.606Z,7740
2017-08-19T13:54:35.201Z,7988
2017-08-19T13:55:36.717Z,8504
2017-08-19T13:56:38.358Z,19232